createdAt,value
2022-12-31T00:01:29.732Z,98643.97
2022-12-31T00:03:58.611Z,98634.78
2022-12-31T00:06:33.930Z,98628.59
2022-12-31T00:09:06.874Z,98645.31
2022-12-31T00:11:35.898Z,98648.91
2022-12-31T00:14:04.002Z,98657.22
2022-12-31T00:16:41.088Z,98656.94
2022-12-31T00:19:12.352Z,98658.44
2022-12-31T00:21:39.794Z,98653.38
2022-12-31T00:24:08.496Z,98662.38
2022-12-31T00:26:36.392Z,98657.78
2022-12-31T00:29:05.436Z,98660.06
2022-12-31T00:31:38.082Z,98653.66
2022-12-31T00:34:07.066Z,98670.59
2022-12-31T00:36:38.769Z,98673.25
2022-12-31T00:39:09.891Z,98673.94
2022-12-31T00:41:37.942Z,98686.66
2022-12-31T00:44:05.923Z,98687.78
2022-12-31T00:46:33.537Z,98678.78
2022-12-31T00:49:00.900Z,98677.28
2022-12-31T00:51:29.026Z,98671.91
2022-12-31T00:53:57.905Z,98680.50
2022-12-31T00:56:30.077Z,98681.63
2022-12-31T00:58:59.451Z,98690.25
2022-12-31T01:01:32.328Z,98697.09
2022-12-31T01:04:13.591Z,98697.47
2022-12-31T01:06:43.632Z,98711.72
2022-12-31T01:09:15.137Z,98717.53
2022-12-31T01:11:42.870Z,98725.09
2022-12-31T01:14:20.537Z,98708.78
2022-12-31T01:16:52.414Z,98709.06
2022-12-31T01:19:29.287Z,98717.91
2022-12-31T01:21:56.955Z,98723.25
2022-12-31T01:24:24.686Z,98718.63
2022-12-31T01:26:52.262Z,98720.88
2022-12-31T01:29:19.572Z,98726.09
2022-12-31T01:31:47.180Z,98742.41
2022-12-31T01:34:14.465Z,98729.25
2022-12-31T01:36:41.705Z,98737.97
2022-12-31T01:39:11.810Z,98733.97
2022-12-31T01:41:47.186Z,98740.50
2022-12-31T01:44:23.435Z,98741.94
2022-12-31T01:47:04.518Z,98746.19
2022-12-31T01:49:43.847Z,98753.25
2022-12-31T01:52:31.801Z,98748.19
2022-12-31T01:55:19.463Z,98749.66
2022-12-31T01:57:52.110Z,98751.44
2022-12-31T02:00:20.070Z,98757.31
2022-12-31T02:02:47.523Z,98761.50
2022-12-31T02:05:50.876Z,98758.13
2022-12-31T02:08:18.700Z,98757.53
2022-12-31T02:10:46.024Z,98753.41
2022-12-31T02:13:15.166Z,98754.72
2022-12-31T02:16:06.067Z,98752.25
2022-12-31T02:18:57.135Z,98757.97
2022-12-31T02:21:36.465Z,98770.78
2022-12-31T02:24:44.888Z,98764.41
2022-12-31T02:27:53.714Z,98761.81
2022-12-31T02:30:24.773Z,98774.50
2022-12-31T02:33:42.727Z,98783.34
2022-12-31T02:36:27.848Z,98770.00
2022-12-31T02:38:57.627Z,98780.88
2022-12-31T02:41:44.048Z,98779.06
2022-12-31T02:44:41.298Z,98780.28
2022-12-31T02:47:08.466Z,98791.66
2022-12-31T02:50:01.131Z,98780.22
2022-12-31T02:53:20.651Z,98776.75
2022-12-31T02:56:18.779Z,98783.09
2022-12-31T02:59:22.973Z,98772.75
2022-12-31T03:02:15.687Z,98771.59
2022-12-31T03:04:54.434Z,98762.66
2022-12-31T03:07:32.184Z,98777.00
2022-12-31T03:10:01.265Z,98774.47
2022-12-31T03:12:48.904Z,98776.00
2022-12-31T03:15:37.274Z,98768.00
2022-12-31T03:18:38.956Z,98768.88
2022-12-31T03:21:32.290Z,98767.59
2022-12-31T03:24:18.697Z,98764.88
2022-12-31T03:26:45.969Z,98759.84
2022-12-31T03:29:13.144Z,98767.78
2022-12-31T03:31:40.504Z,98764.81
2022-12-31T03:34:07.712Z,98780.63
2022-12-31T03:36:34.893Z,98783.78
2022-12-31T03:39:02.173Z,98792.19
2022-12-31T03:41:29.415Z,98802.50
2022-12-31T03:43:56.604Z,98801.16
2022-12-31T03:46:23.882Z,98805.09
2022-12-31T03:48:51.068Z,98797.59
2022-12-31T03:51:18.307Z,98808.22
2022-12-31T03:53:45.500Z,98800.94
2022-12-31T03:56:12.732Z,98799.41
2022-12-31T03:58:44.805Z,98801.50
2022-12-31T04:01:14.537Z,98801.84
2022-12-31T04:03:41.771Z,98817.34
2022-12-31T04:06:09.127Z,98817.72
2022-12-31T04:08:36.371Z,98814.41
2022-12-31T04:11:04.600Z,98815.84
2022-12-31T04:13:31.913Z,98820.97
2022-12-31T04:15:59.247Z,98823.56
2022-12-31T04:18:26.573Z,98821.81
2022-12-31T04:20:53.842Z,98815.53
2022-12-31T04:23:21.120Z,98819.53
2022-12-31T04:25:48.334Z,98816.53
2022-12-31T04:28:15.741Z,98826.59
2022-12-31T04:30:43.940Z,98830.22
2022-12-31T04:33:11.181Z,98834.44
2022-12-31T04:35:38.550Z,98830.94
2022-12-31T04:38:06.124Z,98809.09
2022-12-31T04:40:33.433Z,98818.03
2022-12-31T04:43:00.612Z,98825.59
2022-12-31T04:45:27.976Z,98832.41
2022-12-31T04:47:55.329Z,98846.56
2022-12-31T04:50:22.526Z,98843.41
2022-12-31T04:52:49.764Z,98844.16
2022-12-31T04:55:17.320Z,98850.63
2022-12-31T04:57:45.543Z,98855.59
2022-12-31T05:00:13.720Z,98852.19
2022-12-31T05:02:41.206Z,98854.16
2022-12-31T05:05:09.436Z,98856.25
2022-12-31T05:07:36.962Z,98855.13
2022-12-31T05:10:05.415Z,98851.72
2022-12-31T05:12:32.726Z,98856.97
2022-12-31T05:15:00.276Z,98867.44
2022-12-31T05:17:27.926Z,98866.88
2022-12-31T05:19:55.593Z,98867.16
2022-12-31T05:22:29.193Z,98865.13
2022-12-31T05:24:59.579Z,98869.22
2022-12-31T05:27:31.483Z,98861.91
2022-12-31T05:30:00.022Z,98862.31
2022-12-31T05:32:27.476Z,98876.91
2022-12-31T05:34:54.734Z,98862.56
2022-12-31T05:37:22.557Z,98854.75
2022-12-31T05:39:50.576Z,98860.25
2022-12-31T05:42:19.307Z,98857.00
2022-12-31T05:44:47.009Z,98857.78
2022-12-31T05:47:15.245Z,98849.69
2022-12-31T05:49:42.701Z,98851.66
2022-12-31T05:52:10.634Z,98843.59
2022-12-31T05:54:37.961Z,98838.47
2022-12-31T05:57:05.855Z,98857.34
2022-12-31T05:59:33.516Z,98854.59
2022-12-31T06:02:00.800Z,98864.19
2022-12-31T06:04:28.189Z,98861.31
2022-12-31T06:06:55.806Z,98848.91
2022-12-31T06:09:23.889Z,98852.31
2022-12-31T06:11:51.319Z,98852.06
2022-12-31T06:14:18.956Z,98861.88
2022-12-31T06:16:46.630Z,98872.06
2022-12-31T06:19:14.207Z,98877.53
2022-12-31T06:21:41.638Z,98886.06
2022-12-31T06:24:09.094Z,98882.47
2022-12-31T06:26:37.666Z,98877.09
2022-12-31T06:29:05.551Z,98885.03
2022-12-31T06:31:33.313Z,98881.75
2022-12-31T06:34:00.768Z,98885.53
2022-12-31T06:36:28.636Z,98886.06
2022-12-31T06:38:56.130Z,98895.63
2022-12-31T06:41:23.627Z,98895.09
2022-12-31T06:43:51.118Z,98888.94
2022-12-31T06:46:19.264Z,98899.06
2022-12-31T06:48:46.780Z,98910.88
2022-12-31T06:51:21.639Z,98919.72
2022-12-31T06:53:51.897Z,98913.25
2022-12-31T06:56:33.871Z,98906.44
2022-12-31T06:59:09.976Z,98900.16
2022-12-31T07:01:57.993Z,98912.09
2022-12-31T07:05:42.053Z,98896.47
2022-12-31T07:08:45.401Z,98889.63
2022-12-31T07:11:35.986Z,98892.78
2022-12-31T07:15:03.529Z,98894.75
2022-12-31T07:17:49.814Z,98914.75
2022-12-31T07:20:20.974Z,98915.69
2022-12-31T07:22:49.197Z,98923.94
2022-12-31T07:25:18.833Z,98927.94
2022-12-31T07:28:41.343Z,98916.75
2022-12-31T07:31:59.907Z,98923.91
2022-12-31T07:35:09.647Z,98926.75
2022-12-31T07:37:56.654Z,98931.69
2022-12-31T07:41:09.366Z,98926.34
2022-12-31T07:44:02.468Z,98925.81
2022-12-31T07:46:41.306Z,98928.59
2022-12-31T07:49:14.247Z,98931.38
2022-12-31T07:51:43.455Z,98940.38
2022-12-31T07:54:14.117Z,98944.84
2022-12-31T07:56:43.403Z,98957.38
2022-12-31T07:59:48.436Z,98952.47
2022-12-31T08:02:56.526Z,98960.69
2022-12-31T08:05:50.649Z,98959.81
2022-12-31T08:08:45.206Z,98958.44
2022-12-31T08:11:21.044Z,98965.06
2022-12-31T08:13:50.459Z,98968.50
2022-12-31T08:16:18.891Z,98967.53
2022-12-31T08:18:46.968Z,98959.63
2022-12-31T08:22:10.705Z,98966.16
2022-12-31T08:25:19.981Z,98972.75
2022-12-31T08:28:07.496Z,98963.28
2022-12-31T08:31:14.639Z,98967.50
2022-12-31T08:34:33.755Z,98964.72
2022-12-31T08:37:13.868Z,98959.44
2022-12-31T08:39:55.919Z,98961.75
2022-12-31T08:43:16.216Z,98957.25
2022-12-31T08:46:04.398Z,98972.19
2022-12-31T08:48:50.913Z,98968.94
2022-12-31T08:51:26.407Z,98976.78
2022-12-31T08:53:55.450Z,98978.53
2022-12-31T08:56:50.774Z,98988.31
2022-12-31T08:59:56.019Z,98993.59
2022-12-31T09:02:44.694Z,98998.00
2022-12-31T09:05:30.985Z,99011.56
2022-12-31T09:08:48.058Z,99003.91
2022-12-31T09:12:30.147Z,99010.94
2022-12-31T09:15:12.741Z,99000.78
2022-12-31T09:17:49.856Z,98999.69
2022-12-31T09:20:42.461Z,98997.78
2022-12-31T09:23:13.257Z,99004.88
2022-12-31T09:26:30.790Z,99012.38
2022-12-31T09:29:37.609Z,99008.94
2022-12-31T09:32:28.938Z,99013.56
2022-12-31T09:35:34.501Z,99005.91
2022-12-31T09:38:27.529Z,99016.50
2022-12-31T09:41:17.154Z,99014.75
2022-12-31T09:44:24.743Z,99026.84
2022-12-31T09:47:23.136Z,99018.34
2022-12-31T09:50:39.234Z,99023.19
2022-12-31T09:53:58.700Z,99027.81
2022-12-31T09:57:48.544Z,99036.03
2022-12-31T10:00:49.105Z,99038.06
2022-12-31T10:04:19.170Z,99029.59
2022-12-31T10:07:18.547Z,99026.09
2022-12-31T10:09:54.473Z,99023.97
2022-12-31T10:13:09.280Z,99021.78
2022-12-31T10:16:08.328Z,99008.84
2022-12-31T10:19:12.710Z,99019.59
2022-12-31T10:22:27.103Z,99015.28
2022-12-31T10:25:14.889Z,99010.44
2022-12-31T10:28:07.185Z,99014.13
2022-12-31T10:30:49.245Z,99011.34
2022-12-31T10:34:02.739Z,99009.66
2022-12-31T10:37:19.223Z,99005.00
2022-12-31T10:40:07.542Z,99010.44
2022-12-31T10:43:06.004Z,98999.47
2022-12-31T10:46:32.314Z,99012.22
2022-12-31T10:49:40.618Z,98995.56
2022-12-31T10:52:42.744Z,98988.78
2022-12-31T10:56:13.289Z,98985.94
2022-12-31T10:59:27.749Z,98961.78
2022-12-31T11:02:37.841Z,98970.03
2022-12-31T11:05:56.594Z,98972.41
2022-12-31T11:09:20.413Z,98972.75
2022-12-31T11:12:31.712Z,98972.28
2022-12-31T11:15:54.626Z,98978.00
2022-12-31T11:18:52.456Z,98960.63
2022-12-31T11:22:19.625Z,98964.53
2022-12-31T11:25:30.039Z,98959.41
2022-12-31T11:28:47.749Z,98955.44
2022-12-31T11:31:59.632Z,98943.81
2022-12-31T11:35:00.734Z,98945.53
2022-12-31T11:38:04.782Z,98943.53
2022-12-31T11:41:28.594Z,98942.19
2022-12-31T11:44:33.086Z,98931.41
2022-12-31T11:47:31.839Z,98932.97
2022-12-31T11:51:09.495Z,98919.31
2022-12-31T11:54:21.952Z,98915.63
2022-12-31T11:57:30.525Z,98918.88
2022-12-31T12:00:30.500Z,98918.84
2022-12-31T12:03:07.784Z,98928.63
2022-12-31T12:05:38.726Z,98924.72
2022-12-31T12:08:06.986Z,98921.22
2022-12-31T12:11:18.822Z,98919.41
2022-12-31T12:13:46.627Z,98910.78
2022-12-31T12:16:15.463Z,98912.31
2022-12-31T12:18:52.013Z,98914.28
2022-12-31T12:21:23.198Z,98915.81
2022-12-31T12:24:06.739Z,98912.88
2022-12-31T12:26:42.824Z,98914.28
2022-12-31T12:29:35.703Z,98912.78
2022-12-31T12:32:27.011Z,98905.59
2022-12-31T12:34:54.377Z,98906.22
2022-12-31T12:37:24.485Z,98897.38
2022-12-31T12:40:19.059Z,98898.88
2022-12-31T12:42:53.129Z,98888.94
2022-12-31T12:45:51.471Z,98894.09
2022-12-31T12:48:41.609Z,98886.81
2022-12-31T12:51:34.002Z,98896.56
2022-12-31T12:54:16.309Z,98882.66
2022-12-31T12:56:54.665Z,98883.69
2022-12-31T12:59:59.949Z,98885.25
2022-12-31T13:03:16.264Z,98886.41
2022-12-31T13:06:33.665Z,98890.25
2022-12-31T13:09:58.130Z,98880.59
2022-12-31T13:13:25.465Z,98881.13
2022-12-31T13:16:08.522Z,98877.72
2022-12-31T13:19:34.319Z,98877.03
2022-12-31T13:22:32.873Z,98876.63
2022-12-31T13:25:15.977Z,98866.59
2022-12-31T13:27:50.290Z,98857.03
2022-12-31T13:30:28.652Z,98862.47
2022-12-31T13:33:24.783Z,98856.50
2022-12-31T13:36:00.345Z,98857.56
2022-12-31T13:38:58.479Z,98862.28
2022-12-31T13:41:39.959Z,98861.53
2022-12-31T13:44:40.139Z,98852.41
2022-12-31T13:47:46.800Z,98837.34
2022-12-31T13:50:33.780Z,98839.84
2022-12-31T13:53:17.898Z,98838.03
2022-12-31T13:56:06.581Z,98834.59
2022-12-31T13:58:53.213Z,98843.28
2022-12-31T14:01:56.316Z,98833.97
2022-12-31T14:04:41.915Z,98826.97
2022-12-31T14:07:22.991Z,98834.06
2022-12-31T14:09:50.350Z,98840.63
2022-12-31T14:13:15.677Z,98834.94
2022-12-31T14:16:04.909Z,98843.19
2022-12-31T14:18:58.004Z,98844.34
2022-12-31T14:22:01.485Z,98839.66
2022-12-31T14:25:01.313Z,98840.81
2022-12-31T14:27:41.551Z,98848.34
2022-12-31T14:30:22.976Z,98855.00
2022-12-31T14:33:26.800Z,98851.00
2022-12-31T14:36:22.489Z,98862.50
2022-12-31T14:39:39.635Z,98859.56
2022-12-31T14:42:39.102Z,98860.19
2022-12-31T14:46:04.456Z,98871.84
2022-12-31T14:49:13.610Z,98877.47
2022-12-31T14:51:41.593Z,98870.38
2022-12-31T14:54:36.876Z,98879.19
2022-12-31T14:57:24.370Z,98878.09
2022-12-31T14:59:58.961Z,98868.69
2022-12-31T15:02:35.371Z,98872.09
2022-12-31T15:05:21.570Z,98871.28
2022-12-31T15:08:14.985Z,98873.28
2022-12-31T15:11:34.015Z,98867.66
2022-12-31T15:14:51.014Z,98870.16
2022-12-31T15:18:13.796Z,98875.63
2022-12-31T15:21:04.695Z,98879.91
2022-12-31T15:23:40.024Z,98880.81
2022-12-31T15:26:23.354Z,98884.03
2022-12-31T15:29:24.302Z,98884.88
2022-12-31T15:31:52.654Z,98874.00
2022-12-31T15:34:34.928Z,98882.59
2022-12-31T15:37:06.834Z,98877.41
2022-12-31T15:39:43.442Z,98882.75
2022-12-31T15:42:50.188Z,98889.56
2022-12-31T15:45:40.885Z,98882.91
2022-12-31T15:48:32.578Z,98893.22
2022-12-31T15:51:02.396Z,98882.72
2022-12-31T15:53:55.272Z,98882.28
2022-12-31T15:56:49.037Z,98883.84
2022-12-31T15:59:21.964Z,98889.47
2022-12-31T16:01:49.899Z,98885.75
2022-12-31T16:04:20.917Z,98900.97
2022-12-31T16:06:51.171Z,98887.69
2022-12-31T16:09:34.333Z,98904.88
2022-12-31T16:12:12.301Z,98902.91
2022-12-31T16:14:50.831Z,98897.09
2022-12-31T16:17:39.731Z,98904.28
2022-12-31T16:20:31.460Z,98906.69
2022-12-31T16:23:03.219Z,98902.75
2022-12-31T16:25:33.514Z,98912.25
2022-12-31T16:28:03.780Z,98901.75
2022-12-31T16:30:35.774Z,98914.91
2022-12-31T16:33:10.185Z,98907.25
2022-12-31T16:35:37.985Z,98914.16
2022-12-31T16:38:19.411Z,98905.34
2022-12-31T16:41:24.209Z,98905.97
2022-12-31T16:43:52.026Z,98906.50
2022-12-31T16:46:30.636Z,98908.56
2022-12-31T16:49:20.438Z,98912.47
2022-12-31T16:51:49.711Z,98908.53
2022-12-31T16:54:30.267Z,98912.53
2022-12-31T16:57:00.164Z,98911.81
2022-12-31T16:59:44.505Z,98915.00
2022-12-31T17:02:35.133Z,98919.91
2022-12-31T17:05:05.455Z,98921.41
2022-12-31T17:07:36.681Z,98915.81
2022-12-31T17:10:07.081Z,98918.19
2022-12-31T17:13:25.529Z,98913.25
2022-12-31T17:15:44.680Z,98920.25
2022-12-31T17:18:24.046Z,98925.91
2022-12-31T17:20:54.966Z,98931.81
2022-12-31T17:23:32.593Z,98929.59
2022-12-31T17:26:13.737Z,98929.59
2022-12-31T17:28:48.796Z,98930.47
2022-12-31T17:31:40.464Z,98934.13
2022-12-31T17:34:13.983Z,98931.91
2022-12-31T17:37:18.359Z,98928.81
2022-12-31T17:40:24.479Z,98933.59
2022-12-31T17:42:48.747Z,98937.78
2022-12-31T17:45:22.364Z,98938.38
2022-12-31T17:47:53.746Z,98952.91
2022-12-31T17:50:26.793Z,98942.56
2022-12-31T17:53:12.243Z,98955.72
2022-12-31T17:55:51.840Z,98970.00
2022-12-31T17:58:33.208Z,98962.72
2022-12-31T18:01:02.209Z,98960.47
2022-12-31T18:03:29.556Z,98958.50
2022-12-31T18:05:57.098Z,98965.50
2022-12-31T18:08:24.815Z,98967.75
2022-12-31T18:10:54.498Z,98980.03
2022-12-31T18:13:26.260Z,98972.13
2022-12-31T18:15:54.879Z,98973.81
2022-12-31T18:18:25.873Z,98972.41
2022-12-31T18:21:09.236Z,98969.91
2022-12-31T18:23:48.782Z,98970.50
2022-12-31T18:26:21.142Z,98964.59
2022-12-31T18:28:50.744Z,98965.63
2022-12-31T18:31:26.205Z,98966.47
2022-12-31T18:33:56.933Z,98975.69
2022-12-31T18:36:28.908Z,98976.75
2022-12-31T18:39:21.289Z,98974.00
2022-12-31T18:41:49.603Z,98975.84
2022-12-31T18:44:18.009Z,98968.69
2022-12-31T18:46:45.561Z,98975.38
2022-12-31T18:49:12.824Z,98977.88
2022-12-31T18:51:40.415Z,98973.78
2022-12-31T18:54:12.377Z,98974.56
2022-12-31T18:56:46.532Z,98978.13
2022-12-31T18:59:15.354Z,98982.78
2022-12-31T19:01:43.277Z,98984.75
2022-12-31T19:04:27.128Z,98994.59
2022-12-31T19:06:56.555Z,98984.22
2022-12-31T19:09:44.541Z,98995.13
2022-12-31T19:12:15.488Z,98987.81
2022-12-31T19:14:44.162Z,98987.47
2022-12-31T19:17:11.551Z,98993.28
2022-12-31T19:19:38.913Z,98991.59
2022-12-31T19:22:06.617Z,98999.31
2022-12-31T19:24:34.228Z,98993.34
2022-12-31T19:27:02.333Z,98999.44
2022-12-31T19:29:30.922Z,98991.38
2022-12-31T19:32:01.009Z,99001.69
2022-12-31T19:34:28.476Z,98998.31
2022-12-31T19:36:56.038Z,98989.56
2022-12-31T19:39:23.502Z,98997.84
2022-12-31T19:41:58.504Z,98999.84
2022-12-31T19:44:26.904Z,99004.16
2022-12-31T19:46:54.376Z,99011.50
2022-12-31T19:49:21.687Z,99010.88
2022-12-31T19:51:49.068Z,99011.00
2022-12-31T19:54:16.371Z,99015.56
2022-12-31T19:56:43.805Z,99016.75
2022-12-31T19:59:11.864Z,99021.91
2022-12-31T20:01:39.484Z,99016.63
2022-12-31T20:04:06.993Z,99016.03
2022-12-31T20:06:34.590Z,99015.22
2022-12-31T20:09:03.505Z,99002.03
2022-12-31T20:11:31.830Z,99010.63
2022-12-31T20:13:59.533Z,99009.53
2022-12-31T20:16:27.207Z,99015.22
2022-12-31T20:18:54.917Z,99015.75
2022-12-31T20:21:27.564Z,99011.22
2022-12-31T20:24:02.426Z,99020.44
2022-12-31T20:26:30.274Z,99019.00
2022-12-31T20:28:58.315Z,99022.44
2022-12-31T20:31:26.539Z,99027.63
2022-12-31T20:33:55.284Z,99023.00
2022-12-31T20:36:30.059Z,99024.88
2022-12-31T20:39:07.807Z,99023.53
2022-12-31T20:41:35.471Z,99017.00
2022-12-31T20:44:06.687Z,99019.06
2022-12-31T20:46:34.842Z,99020.94
2022-12-31T20:49:04.847Z,99020.97
2022-12-31T20:52:25.270Z,99013.31
2022-12-31T20:54:50.490Z,99010.97
2022-12-31T20:57:21.147Z,99022.25
2022-12-31T20:59:51.565Z,99006.84
2022-12-31T21:02:29.503Z,99012.28
2022-12-31T21:05:13.620Z,99021.03
2022-12-31T21:07:58.910Z,99033.72
2022-12-31T21:10:59.307Z,99028.72
2022-12-31T21:13:35.853Z,99027.91
2022-12-31T21:16:12.061Z,99037.03
2022-12-31T21:18:39.915Z,99043.91
2022-12-31T21:21:07.600Z,99044.75
2022-12-31T21:23:39.343Z,99044.28
2022-12-31T21:26:16.234Z,99043.63
2022-12-31T21:28:44.146Z,99047.34
2022-12-31T21:31:17.350Z,99051.50
2022-12-31T21:33:49.487Z,99053.69
2022-12-31T21:36:17.487Z,99054.91
2022-12-31T21:38:45.326Z,99054.00
2022-12-31T21:41:34.783Z,99057.13
2022-12-31T21:44:03.798Z,99059.84
2022-12-31T21:46:31.716Z,99062.78
2022-12-31T21:49:01.975Z,99070.53
2022-12-31T21:51:30.085Z,99065.56
2022-12-31T21:53:58.275Z,99072.72
2022-12-31T21:56:26.067Z,99069.88
2022-12-31T21:59:17.419Z,99075.63
2022-12-31T22:02:03.635Z,99073.44
2022-12-31T22:07:18.327Z,99081.38
2022-12-31T22:09:45.785Z,99077.31
2022-12-31T22:12:13.100Z,99082.88
2022-12-31T22:15:15.557Z,99093.19
2022-12-31T22:17:31.451Z,99090.25
2022-12-31T22:22:46.486Z,99097.72
2022-12-31T22:25:16.081Z,99088.44
2022-12-31T22:27:53.075Z,99092.50
2022-12-31T22:30:31.402Z,99099.69
2022-12-31T22:32:59.587Z,99098.94
2022-12-31T22:35:26.961Z,99101.91
2022-12-31T22:37:57.875Z,99118.09
2022-12-31T22:40:26.544Z,99113.44
2022-12-31T22:42:55.630Z,99120.44
2022-12-31T22:45:23.083Z,99117.66
2022-12-31T22:47:50.502Z,99133.56
2022-12-31T22:50:18.746Z,99128.72
2022-12-31T22:52:47.446Z,99133.50
2022-12-31T22:55:19.423Z,99134.41
2022-12-31T22:57:47.225Z,99135.09
2022-12-31T23:00:15.828Z,99128.44
2022-12-31T23:02:45.369Z,99135.69
2022-12-31T23:05:16.272Z,99129.41
2022-12-31T23:07:44.311Z,99125.34
2022-12-31T23:10:31.529Z,99123.34
2022-12-31T23:13:19.618Z,99132.00
2022-12-31T23:16:05.838Z,99137.19
2022-12-31T23:18:52.007Z,99136.59
2022-12-31T23:21:38.247Z,99147.00
2022-12-31T23:24:18.216Z,99136.19
2022-12-31T23:26:49.002Z,99137.53
2022-12-31T23:29:16.585Z,99153.13
2022-12-31T23:31:44.014Z,99142.94
2022-12-31T23:34:11.594Z,99147.22
2022-12-31T23:36:39.259Z,99152.84
2022-12-31T23:39:10.570Z,99152.47
2022-12-31T23:41:38.203Z,99151.91
2022-12-31T23:44:06.025Z,99147.88
2022-12-31T23:46:33.559Z,99148.16
2022-12-31T23:49:00.999Z,99149.00
2022-12-31T23:51:28.705Z,99153.38
2022-12-31T23:53:56.155Z,99152.22
2022-12-31T23:56:24.237Z,99152.22
2022-12-31T23:58:59.991Z,99146.16
